Woodcote, United Kingdom
Current Conditions -  °F | °C
As of 10:12 AM on Thursday 29 Jan 2015 (Local Time) from EGOS Reporting Station
Snow Showers Snow Showers  
Wind Chill: 24°   Ceiling: 1600
Heat Index: 34°   Visibility: 5mi
Dew Point: 32°   Wind: 14mph
Humidity: 93%   Direction: 250°WSW
Pressure: 29"   Gusts: NA
Location:  52.73°N, 2.33°W
Report Text: EGOS 291012Z 25012KT 8000 7000N -SHRASN FEW007 BKN016TCU 01/00 Q0982 RESHSN WHT TEMPO 2000 SHSN SCT010 BKN015CB
Loading
Personal Weather Stations






























Interactive Weather Map New forecast layout! Learn more

10-Day Weather Forecast

Advertisements
Track Severe Weather on mobile